sensor_id;sensor_type;location;lat;lon;timestamp;P1;durP1;ratioP1;P2;durP2;ratioP2
22017;SDS011;11173;51.050;7.108;2022-09-17T00:02:42;1.17;;;0.40;;
22017;SDS011;11173;51.050;7.108;2022-09-17T00:07:45;0.85;;;0.55;;
22017;SDS011;11173;51.050;7.108;2022-09-17T00:12:45;2.75;;;0.80;;
22017;SDS011;11173;51.050;7.108;2022-09-17T00:17:46;2.40;;;0.90;;
22017;SDS011;11173;51.050;7.108;2022-09-17T00:22:47;1.52;;;1.00;;
22017;SDS011;11173;51.050;7.108;2022-09-17T00:27:47;3.20;;;1.02;;
22017;SDS011;11173;51.050;7.108;2022-09-17T00:32:47;3.50;;;1.48;;
22017;SDS011;11173;51.050;7.108;2022-09-17T00:37:48;3.70;;;1.60;;
22017;SDS011;11173;51.050;7.108;2022-09-17T00:42:48;5.90;;;1.75;;
22017;SDS011;11173;51.050;7.108;2022-09-17T00:47:51;3.63;;;1.40;;
22017;SDS011;11173;51.050;7.108;2022-09-17T00:53:04;3.40;;;0.95;;
22017;SDS011;11173;51.050;7.108;2022-09-17T00:58:08;2.47;;;0.90;;
22017;SDS011;11173;51.050;7.108;2022-09-17T01:03:10;3.88;;;1.20;;
22017;SDS011;11173;51.050;7.108;2022-09-17T01:24:19;3.30;;;1.40;;
22017;SDS011;11173;51.050;7.108;2022-09-17T01:35:34;2.90;;;1.50;;
22017;SDS011;11173;51.050;7.108;2022-09-17T01:50:57;1.88;;;1.00;;
22017;SDS011;11173;51.050;7.108;2022-09-17T01:56:04;4.30;;;1.73;;
22017;SDS011;11173;51.050;7.108;2022-09-17T02:01:06;4.20;;;2.30;;
22017;SDS011;11173;51.050;7.108;2022-09-17T02:06:11;4.03;;;2.22;;
22017;SDS011;11173;51.050;7.108;2022-09-17T02:11:15;3.55;;;1.60;;
22017;SDS011;11173;51.050;7.108;2022-09-17T02:16:21;2.83;;;1.55;;
22017;SDS011;11173;51.050;7.108;2022-09-17T02:26:54;2.80;;;1.20;;
22017;SDS011;11173;51.050;7.108;2022-09-17T02:31:57;3.17;;;1.45;;
22017;SDS011;11173;51.050;7.108;2022-09-17T02:36:57;2.55;;;1.20;;
22017;SDS011;11173;51.050;7.108;2022-09-17T02:57:46;3.95;;;1.40;;
22017;SDS011;11173;51.050;7.108;2022-09-17T03:03:00;3.50;;;1.30;;
22017;SDS011;11173;51.050;7.108;2022-09-17T03:08:07;3.88;;;1.15;;
22017;SDS011;11173;51.050;7.108;2022-09-17T03:13:11;5.30;;;1.58;;
22017;SDS011;11173;51.050;7.108;2022-09-17T03:18:11;2.75;;;1.35;;
22017;SDS011;11173;51.050;7.108;2022-09-17T03:23:12;5.13;;;1.45;;
22017;SDS011;11173;51.050;7.108;2022-09-17T03:28:12;3.72;;;1.10;;
22017;SDS011;11173;51.050;7.108;2022-09-17T03:33:13;3.00;;;0.77;;
22017;SDS011;11173;51.050;7.108;2022-09-17T03:38:13;3.40;;;1.23;;
22017;SDS011;11173;51.050;7.108;2022-09-17T03:43:14;2.95;;;0.90;;
22017;SDS011;11173;51.050;7.108;2022-09-17T03:48:15;2.45;;;1.20;;
22017;SDS011;11173;51.050;7.108;2022-09-17T03:53:15;1.83;;;0.98;;
22017;SDS011;11173;51.050;7.108;2022-09-17T03:58:16;2.85;;;0.90;;
22017;SDS011;11173;51.050;7.108;2022-09-17T04:03:16;3.72;;;1.20;;
22017;SDS011;11173;51.050;7.108;2022-09-17T04:08:16;3.80;;;1.35;;
22017;SDS011;11173;51.050;7.108;2022-09-17T04:13:17;4.63;;;1.15;;
22017;SDS011;11173;51.050;7.108;2022-09-17T04:18:19;3.13;;;0.90;;
22017;SDS011;11173;51.050;7.108;2022-09-17T04:23:19;1.90;;;0.82;;
22017;SDS011;11173;51.050;7.108;2022-09-17T04:28:20;4.88;;;1.02;;
22017;SDS011;11173;51.050;7.108;2022-09-17T04:33:20;3.13;;;0.80;;
22017;SDS011;11173;51.050;7.108;2022-09-17T04:38:20;4.35;;;1.20;;
22017;SDS011;11173;51.050;7.108;2022-09-17T04:43:21;2.05;;;0.98;;
22017;SDS011;11173;51.050;7.108;2022-09-17T04:48:22;3.63;;;1.10;;
22017;SDS011;11173;51.050;7.108;2022-09-17T04:53:23;5.75;;;1.10;;
22017;SDS011;11173;51.050;7.108;2022-09-17T04:58:23;4.90;;;1.08;;
22017;SDS011;11173;51.050;7.108;2022-09-17T05:03:24;2.25;;;1.05;;
22017;SDS011;11173;51.050;7.108;2022-09-17T05:08:24;3.92;;;0.82;;
22017;SDS011;11173;51.050;7.108;2022-09-17T05:13:25;2.60;;;0.93;;
22017;SDS011;11173;51.050;7.108;2022-09-17T05:18:25;2.90;;;0.80;;
22017;SDS011;11173;51.050;7.108;2022-09-17T05:23:25;2.00;;;0.70;;
22017;SDS011;11173;51.050;7.108;2022-09-17T05:28:26;2.08;;;0.63;;
22017;SDS011;11173;51.050;7.108;2022-09-17T05:33:27;1.65;;;0.93;;
22017;SDS011;11173;51.050;7.108;2022-09-17T05:38:28;2.10;;;0.80;;
22017;SDS011;11173;51.050;7.108;2022-09-17T05:43:28;4.93;;;1.45;;
22017;SDS011;11173;51.050;7.108;2022-09-17T05:48:29;3.40;;;1.00;;
22017;SDS011;11173;51.050;7.108;2022-09-17T05:53:29;3.30;;;0.90;;
22017;SDS011;11173;51.050;7.108;2022-09-17T05:58:29;1.77;;;0.90;;
22017;SDS011;11173;51.050;7.108;2022-09-17T06:03:31;2.95;;;1.23;;
22017;SDS011;11173;51.050;7.108;2022-09-17T06:08:32;2.72;;;0.80;;
22017;SDS011;11173;51.050;7.108;2022-09-17T06:13:34;2.30;;;1.17;;
22017;SDS011;11173;51.050;7.108;2022-09-17T06:18:34;2.83;;;0.70;;
22017;SDS011;11173;51.050;7.108;2022-09-17T06:23:35;1.80;;;0.70;;
22017;SDS011;11173;51.050;7.108;2022-09-17T06:28:36;2.80;;;0.88;;
22017;SDS011;11173;51.050;7.108;2022-09-17T06:33:36;2.13;;;0.65;;
22017;SDS011;11173;51.050;7.108;2022-09-17T06:38:37;3.33;;;0.80;;
22017;SDS011;11173;51.050;7.108;2022-09-17T06:43:37;1.83;;;1.00;;
22017;SDS011;11173;51.050;7.108;2022-09-17T06:48:38;1.93;;;0.60;;
22017;SDS011;11173;51.050;7.108;2022-09-17T06:53:38;1.83;;;0.50;;
22017;SDS011;11173;51.050;7.108;2022-09-17T06:58:39;2.47;;;0.80;;
22017;SDS011;11173;51.050;7.108;2022-09-17T07:03:43;1.95;;;0.63;;
22017;SDS011;11173;51.050;7.108;2022-09-17T07:08:43;3.30;;;1.13;;
22017;SDS011;11173;51.050;7.108;2022-09-17T07:13:44;4.13;;;0.80;;
22017;SDS011;11173;51.050;7.108;2022-09-17T07:18:44;1.70;;;0.70;;
22017;SDS011;11173;51.050;7.108;2022-09-17T07:23:45;1.98;;;0.65;;
22017;SDS011;11173;51.050;7.108;2022-09-17T07:28:45;4.55;;;1.27;;
22017;SDS011;11173;51.050;7.108;2022-09-17T07:33:46;1.88;;;0.60;;
22017;SDS011;11173;51.050;7.108;2022-09-17T07:38:46;1.63;;;0.80;;
22017;SDS011;11173;51.050;7.108;2022-09-17T07:43:47;2.15;;;0.70;;
22017;SDS011;11173;51.050;7.108;2022-09-17T07:48:47;4.45;;;0.88;;
22017;SDS011;11173;51.050;7.108;2022-09-17T07:53:51;4.43;;;1.23;;
22017;SDS011;11173;51.050;7.108;2022-09-17T07:58:53;6.55;;;1.25;;
22017;SDS011;11173;51.050;7.108;2022-09-17T08:03:54;2.00;;;0.88;;
22017;SDS011;11173;51.050;7.108;2022-09-17T08:08:54;3.80;;;0.80;;
22017;SDS011;11173;51.050;7.108;2022-09-17T08:13:56;2.80;;;0.70;;
22017;SDS011;11173;51.050;7.108;2022-09-17T08:18:56;2.55;;;0.68;;
22017;SDS011;11173;51.050;7.108;2022-09-17T08:23:57;2.25;;;0.60;;
22017;SDS011;11173;51.050;7.108;2022-09-17T08:28:58;5.65;;;1.08;;
22017;SDS011;11173;51.050;7.108;2022-09-17T08:33:58;3.55;;;0.90;;
22017;SDS011;11173;51.050;7.108;2022-09-17T08:38:59;1.98;;;0.82;;
22017;SDS011;11173;51.050;7.108;2022-09-17T08:49:11;3.17;;;0.60;;
22017;SDS011;11173;51.050;7.108;2022-09-17T08:54:30;3.70;;;0.93;;
22017;SDS011;11173;51.050;7.108;2022-09-17T08:59:38;2.22;;;0.85;;
22017;SDS011;11173;51.050;7.108;2022-09-17T09:04:57;4.40;;;0.90;;
22017;SDS011;11173;51.050;7.108;2022-09-17T09:15:05;6.93;;;1.08;;
22017;SDS011;11173;51.050;7.108;2022-09-17T09:20:30;3.65;;;0.63;;
22017;SDS011;11173;51.050;7.108;2022-09-17T09:25:47;0.65;;;0.30;;
22017;SDS011;11173;51.050;7.108;2022-09-17T09:36:32;1.83;;;0.70;;
22017;SDS011;11173;51.050;7.108;2022-09-17T09:41:35;3.05;;;1.00;;
22017;SDS011;11173;51.050;7.108;2022-09-17T10:02:48;3.35;;;0.98;;
22017;SDS011;11173;51.050;7.108;2022-09-17T10:07:52;2.22;;;0.65;;
22017;SDS011;11173;51.050;7.108;2022-09-17T10:13:04;2.15;;;0.70;;
22017;SDS011;11173;51.050;7.108;2022-09-17T10:18:16;5.40;;;1.05;;
22017;SDS011;11173;51.050;7.108;2022-09-17T10:23:18;2.15;;;0.60;;
22017;SDS011;11173;51.050;7.108;2022-09-17T10:28:28;4.82;;;0.73;;
22017;SDS011;11173;51.050;7.108;2022-09-17T10:33:32;3.70;;;0.63;;
22017;SDS011;11173;51.050;7.108;2022-09-17T10:43:33;6.30;;;0.93;;
22017;SDS011;11173;51.050;7.108;2022-09-17T10:48:36;1.10;;;0.50;;
22017;SDS011;11173;51.050;7.108;2022-09-17T11:04:30;2.05;;;0.70;;
22017;SDS011;11173;51.050;7.108;2022-09-17T11:14:56;1.52;;;0.60;;
22017;SDS011;11173;51.050;7.108;2022-09-17T11:20:31;1.27;;;0.32;;
22017;SDS011;11173;51.050;7.108;2022-09-17T11:25:43;0.75;;;0.30;;
22017;SDS011;11173;51.050;7.108;2022-09-17T11:35:58;0.77;;;0.30;;
22017;SDS011;11173;51.050;7.108;2022-09-17T11:41:08;1.67;;;0.32;;
22017;SDS011;11173;51.050;7.108;2022-09-17T11:46:19;4.13;;;0.63;;
22017;SDS011;11173;51.050;7.108;2022-09-17T11:51:29;1.60;;;0.60;;
22017;SDS011;11173;51.050;7.108;2022-09-17T11:56:35;1.92;;;0.70;;
22017;SDS011;11173;51.050;7.108;2022-09-17T12:01:43;1.90;;;0.50;;
22017;SDS011;11173;51.050;7.108;2022-09-17T12:06:55;2.20;;;0.68;;
22017;SDS011;11173;51.050;7.108;2022-09-17T12:12:04;0.77;;;0.30;;
22017;SDS011;11173;51.050;7.108;2022-09-17T12:17:11;0.73;;;0.20;;
22017;SDS011;11173;51.050;7.108;2022-09-17T12:27:27;1.05;;;0.30;;
22017;SDS011;11173;51.050;7.108;2022-09-17T12:43:35;1.80;;;0.25;;
22017;SDS011;11173;51.050;7.108;2022-09-17T13:00:14;0.40;;;0.20;;
22017;SDS011;11173;51.050;7.108;2022-09-17T13:11:00;0.93;;;0.30;;
22017;SDS011;11173;51.050;7.108;2022-09-17T13:16:13;0.22;;;0.20;;
22017;SDS011;11173;51.050;7.108;2022-09-17T13:21:51;0.10;;;0.10;;
22017;SDS011;11173;51.050;7.108;2022-09-17T13:26:54;0.57;;;0.20;;
22017;SDS011;11173;51.050;7.108;2022-09-17T13:31:57;0.17;;;0.17;;
22017;SDS011;11173;51.050;7.108;2022-09-17T13:36:58;0.10;;;0.10;;
22017;SDS011;11173;51.050;7.108;2022-09-17T13:42:02;0.40;;;0.28;;
22017;SDS011;11173;51.050;7.108;2022-09-17T13:47:08;0.20;;;0.17;;
22017;SDS011;11173;51.050;7.108;2022-09-17T13:52:12;0.25;;;0.20;;
22017;SDS011;11173;51.050;7.108;2022-09-17T13:57:13;1.02;;;0.30;;
22017;SDS011;11173;51.050;7.108;2022-09-17T14:12:49;1.27;;;0.57;;
22017;SDS011;11173;51.050;7.108;2022-09-17T14:18:00;2.67;;;0.45;;
22017;SDS011;11173;51.050;7.108;2022-09-17T14:23:03;1.80;;;0.32;;
22017;SDS011;11173;51.050;7.108;2022-09-17T14:28:07;1.40;;;0.40;;
22017;SDS011;11173;51.050;7.108;2022-09-17T14:33:18;1.17;;;0.32;;
22017;SDS011;11173;51.050;7.108;2022-09-17T14:48:48;0.82;;;0.40;;
22017;SDS011;11173;51.050;7.108;2022-09-17T14:59:05;1.38;;;0.40;;
22017;SDS011;11173;51.050;7.108;2022-09-17T15:04:19;1.70;;;0.60;;
22017;SDS011;11173;51.050;7.108;2022-09-17T15:09:23;2.10;;;0.50;;
22017;SDS011;11173;51.050;7.108;2022-09-17T15:14:28;2.53;;;0.40;;
22017;SDS011;11173;51.050;7.108;2022-09-17T15:19:34;0.45;;;0.20;;
22017;SDS011;11173;51.050;7.108;2022-09-17T15:24:42;1.25;;;0.60;;
22017;SDS011;11173;51.050;7.108;2022-09-17T15:29:44;2.25;;;0.70;;
22017;SDS011;11173;51.050;7.108;2022-09-17T15:35:08;2.58;;;0.70;;
22017;SDS011;11173;51.050;7.108;2022-09-17T15:40:13;1.67;;;0.60;;
22017;SDS011;11173;51.050;7.108;2022-09-17T15:45:30;1.23;;;0.40;;
22017;SDS011;11173;51.050;7.108;2022-09-17T15:50:48;3.75;;;0.73;;
22017;SDS011;11173;51.050;7.108;2022-09-17T15:55:58;2.60;;;0.40;;
22017;SDS011;11173;51.050;7.108;2022-09-17T16:11:19;2.50;;;0.63;;
22017;SDS011;11173;51.050;7.108;2022-09-17T16:16:22;2.63;;;0.63;;
22017;SDS011;11173;51.050;7.108;2022-09-17T16:21:25;4.85;;;0.98;;
22017;SDS011;11173;51.050;7.108;2022-09-17T16:26:32;2.60;;;0.82;;
22017;SDS011;11173;51.050;7.108;2022-09-17T16:31:34;3.50;;;0.88;;
22017;SDS011;11173;51.050;7.108;2022-09-17T16:36:34;2.53;;;0.57;;
22017;SDS011;11173;51.050;7.108;2022-09-17T16:41:35;1.17;;;0.60;;
22017;SDS011;11173;51.050;7.108;2022-09-17T16:46:35;6.15;;;1.08;;
22017;SDS011;11173;51.050;7.108;2022-09-17T16:51:36;2.63;;;0.68;;
22017;SDS011;11173;51.050;7.108;2022-09-17T16:56:36;0.93;;;0.60;;
22017;SDS011;11173;51.050;7.108;2022-09-17T17:01:36;3.17;;;0.70;;
22017;SDS011;11173;51.050;7.108;2022-09-17T17:06:37;3.17;;;0.50;;
22017;SDS011;11173;51.050;7.108;2022-09-17T17:11:38;3.30;;;0.60;;
22017;SDS011;11173;51.050;7.108;2022-09-17T17:16:38;1.00;;;0.43;;
22017;SDS011;11173;51.050;7.108;2022-09-17T17:21:40;1.67;;;0.30;;
22017;SDS011;11173;51.050;7.108;2022-09-17T17:26:40;0.88;;;0.50;;
22017;SDS011;11173;51.050;7.108;2022-09-17T17:31:40;0.70;;;0.40;;
22017;SDS011;11173;51.050;7.108;2022-09-17T17:36:41;1.20;;;0.30;;
22017;SDS011;11173;51.050;7.108;2022-09-17T17:41:41;0.63;;;0.40;;
22017;SDS011;11173;51.050;7.108;2022-09-17T17:46:42;0.63;;;0.30;;
22017;SDS011;11173;51.050;7.108;2022-09-17T17:51:42;0.20;;;0.20;;
22017;SDS011;11173;51.050;7.108;2022-09-17T17:56:44;0.20;;;0.20;;
22017;SDS011;11173;51.050;7.108;2022-09-17T18:01:44;0.30;;;0.25;;
22017;SDS011;11173;51.050;7.108;2022-09-17T18:06:45;0.40;;;0.20;;
22017;SDS011;11173;51.050;7.108;2022-09-17T18:11:47;0.43;;;0.10;;
22017;SDS011;11173;51.050;7.108;2022-09-17T18:16:50;0.20;;;0.20;;
22017;SDS011;11173;51.050;7.108;2022-09-17T18:21:52;0.30;;;0.20;;
22017;SDS011;11173;51.050;7.108;2022-09-17T18:26:53;0.75;;;0.30;;
22017;SDS011;11173;51.050;7.108;2022-09-17T18:31:53;1.02;;;0.30;;
22017;SDS011;11173;51.050;7.108;2022-09-17T18:36:54;1.75;;;0.47;;
22017;SDS011;11173;51.050;7.108;2022-09-17T18:41:54;0.43;;;0.30;;
22017;SDS011;11173;51.050;7.108;2022-09-17T18:46:55;0.98;;;0.60;;
22017;SDS011;11173;51.050;7.108;2022-09-17T18:51:55;0.80;;;0.50;;
22017;SDS011;11173;51.050;7.108;2022-09-17T18:56:55;0.95;;;0.52;;
22017;SDS011;11173;51.050;7.108;2022-09-17T19:01:56;1.85;;;0.60;;
22017;SDS011;11173;51.050;7.108;2022-09-17T19:06:56;2.90;;;0.57;;
22017;SDS011;11173;51.050;7.108;2022-09-17T19:11:56;2.20;;;0.67;;
22017;SDS011;11173;51.050;7.108;2022-09-17T19:16:57;0.60;;;0.50;;
22017;SDS011;11173;51.050;7.108;2022-09-17T19:21:57;1.10;;;0.30;;
22017;SDS011;11173;51.050;7.108;2022-09-17T19:26:57;0.30;;;0.30;;
22017;SDS011;11173;51.050;7.108;2022-09-17T19:32:00;0.60;;;0.30;;
22017;SDS011;11173;51.050;7.108;2022-09-17T19:37:01;0.65;;;0.40;;
22017;SDS011;11173;51.050;7.108;2022-09-17T19:42:01;0.97;;;0.67;;
22017;SDS011;11173;51.050;7.108;2022-09-17T19:47:01;2.40;;;1.00;;
22017;SDS011;11173;51.050;7.108;2022-09-17T19:52:02;3.40;;;0.90;;
22017;SDS011;11173;51.050;7.108;2022-09-17T19:57:02;3.42;;;1.30;;
22017;SDS011;11173;51.050;7.108;2022-09-17T20:02:03;4.57;;;1.30;;
22017;SDS011;11173;51.050;7.108;2022-09-17T20:07:03;7.32;;;1.20;;
22017;SDS011;11173;51.050;7.108;2022-09-17T20:12:04;8.75;;;1.40;;
22017;SDS011;11173;51.050;7.108;2022-09-17T20:17:04;2.40;;;1.00;;
22017;SDS011;11173;51.050;7.108;2022-09-17T20:22:05;2.00;;;0.73;;
22017;SDS011;11173;51.050;7.108;2022-09-17T20:27:05;4.20;;;0.77;;
22017;SDS011;11173;51.050;7.108;2022-09-17T20:32:06;2.72;;;0.90;;
22017;SDS011;11173;51.050;7.108;2022-09-17T20:37:06;2.43;;;0.70;;
22017;SDS011;11173;51.050;7.108;2022-09-17T20:42:07;2.83;;;1.58;;
22017;SDS011;11173;51.050;7.108;2022-09-17T20:47:08;2.53;;;0.90;;
22017;SDS011;11173;51.050;7.108;2022-09-17T20:52:08;1.15;;;0.55;;
22017;SDS011;11173;51.050;7.108;2022-09-17T20:57:09;3.40;;;0.80;;
22017;SDS011;11173;51.050;7.108;2022-09-17T21:02:09;1.83;;;0.68;;
22017;SDS011;11173;51.050;7.108;2022-09-17T21:07:10;1.95;;;0.80;;
22017;SDS011;11173;51.050;7.108;2022-09-17T21:12:10;1.50;;;0.53;;
22017;SDS011;11173;51.050;7.108;2022-09-17T21:17:11;1.40;;;0.50;;
22017;SDS011;11173;51.050;7.108;2022-09-17T21:22:11;3.42;;;0.82;;
22017;SDS011;11173;51.050;7.108;2022-09-17T21:27:12;2.83;;;0.90;;
22017;SDS011;11173;51.050;7.108;2022-09-17T21:32:12;2.25;;;0.60;;
22017;SDS011;11173;51.050;7.108;2022-09-17T21:37:12;1.10;;;0.52;;
22017;SDS011;11173;51.050;7.108;2022-09-17T21:42:13;2.47;;;0.60;;
22017;SDS011;11173;51.050;7.108;2022-09-17T21:47:13;1.98;;;0.68;;
22017;SDS011;11173;51.050;7.108;2022-09-17T21:52:14;1.45;;;0.68;;
22017;SDS011;11173;51.050;7.108;2022-09-17T21:57:14;4.50;;;0.85;;
22017;SDS011;11173;51.050;7.108;2022-09-17T22:02:14;2.90;;;0.77;;
22017;SDS011;11173;51.050;7.108;2022-09-17T22:07:16;2.25;;;0.73;;
22017;SDS011;11173;51.050;7.108;2022-09-17T22:12:16;1.00;;;0.57;;
22017;SDS011;11173;51.050;7.108;2022-09-17T22:17:16;2.87;;;0.70;;
22017;SDS011;11173;51.050;7.108;2022-09-17T22:22:17;1.50;;;0.43;;
22017;SDS011;11173;51.050;7.108;2022-09-17T22:27:17;1.23;;;0.40;;
22017;SDS011;11173;51.050;7.108;2022-09-17T22:32:17;1.00;;;0.30;;
22017;SDS011;11173;51.050;7.108;2022-09-17T22:37:18;0.47;;;0.30;;
22017;SDS011;11173;51.050;7.108;2022-09-17T22:42:18;1.25;;;0.40;;
22017;SDS011;11173;51.050;7.108;2022-09-17T22:47:19;0.43;;;0.20;;
22017;SDS011;11173;51.050;7.108;2022-09-17T22:52:19;1.10;;;0.40;;
22017;SDS011;11173;51.050;7.108;2022-09-17T22:57:19;1.90;;;0.63;;
22017;SDS011;11173;51.050;7.108;2022-09-17T23:02:20;0.68;;;0.30;;
22017;SDS011;11173;51.050;7.108;2022-09-17T23:07:20;1.90;;;0.67;;
22017;SDS011;11173;51.050;7.108;2022-09-17T23:12:20;1.30;;;0.50;;
22017;SDS011;11173;51.050;7.108;2022-09-17T23:17:21;2.22;;;0.60;;
22017;SDS011;11173;51.050;7.108;2022-09-17T23:22:21;1.95;;;0.90;;
22017;SDS011;11173;51.050;7.108;2022-09-17T23:27:22;2.92;;;0.88;;
22017;SDS011;11173;51.050;7.108;2022-09-17T23:32:22;2.37;;;0.60;;
22017;SDS011;11173;51.050;7.108;2022-09-17T23:37:22;4.80;;;1.00;;
22017;SDS011;11173;51.050;7.108;2022-09-17T23:42:23;0.73;;;0.57;;
22017;SDS011;11173;51.050;7.108;2022-09-17T23:47:23;2.33;;;0.80;;
22017;SDS011;11173;51.050;7.108;2022-09-17T23:52:24;1.60;;;1.15;;
22017;SDS011;11173;51.050;7.108;2022-09-17T23:57:24;3.30;;;1.10;;
